Etusivu
METAR-TAF:

METAR-TAF

Lentoasemat :

Gran Canarian lentoasema

Gran Canaria, Espanja

Leveyspiiri: 27-56N, Pituuspiiri: 015-23W, korkeus merenpinnasta: 23 m

Tämänhetkinen sää

Tämä raportti tehtiin 13 minuuttia sitten, kello 23.00 UTC
Tuuli 10 kn pohjoisesta
Lämpötila 19°C
Kosteus 73%
Ilmanpaine 1019 hPa
Näkyvyys 10 km tai enemmän
Muutamia pilviä 4500 ft:n korkeudessa

METAR: GCLP 242300Z 01010KT 9999 FEW045 19/14 Q1019 NOSIG

Aika: 00:13 (23:13 UTC)

Sääennuste

Tämä raportti tehtiin 3 tuntia ja 13 minuuttia sitten, kello 20.00 UTC
Ennuste voimassa 24. päivästä klo 21 UTC - 25. päivään klo 21 UTC
Tuuli 15 kn pohjoisesta
Näkyvyys 10 km tai enemmän
Hajonneita pilviä 4000 ft:n korkeudessa
Todennäköisyys 40% :
Ajoittain
25. päivästä klo 12 UTC - 25. päivään klo 19 UTC
Tuuli 18 kn pohjoisesta puuskistuen 28 kn:hen

TAF: GCLP 242000Z 2421/2521 36015KT 9999 BKN040 TX23/2514Z TN16/2505Z PROB40 TEMPO 2512/2519 01018G28KT

Säähavainnot ja -ennusteet yli 4000 lentoasemalta (METAR- ja TAF-raportit).

Käytössä olevat sääasemat on merkitty karttaan keltaisilla ja punaisilla pisteillä.

Aseta hiiri pisteen päälle nähdäksesi sääaseman nimen.

Klikkaa sitten nähdäksesi säähavainnot ja -ennusteet.

Kartan vaihtaminen: klikkaa mustalla rastilla varustettuja vihreitä pisteitä, niin voit zoomata sisään; viivalla varustettua vihreää pistettä, niin voit zoomata ulos tai vihreitä nuolia, niin pääset viereisille kartoille.


METAR-TAF: